Time,TemperatureF,DewpointF,PressureIn,WindDirection,WindDirectionDegrees,WindSpeedMPH,WindSpeedGustMPH,Humidity,HourlyPrecipIn,Conditions,Clouds,dailyrainin,SoftwareType,DateUTC
2013-01-09 00:00:00,29.0,24.5,29.87,North,0,0.0,0.0,83,0.00,,,0.00,WUHU216HW,2013-01-09 05:00:00,
2013-01-09 00:01:00,29.0,24.5,29.87,North,0,0.0,0.0,83,0.00,,,0.00,WUHU216HW,2013-01-09 05:01:00,
2013-01-09 00:02:00,29.0,24.5,29.87,North,0,0.0,0.0,83,0.00,,,0.00,WUHU216HW,2013-01-09 05:02:00,
2013-01-09 00:03:00,29.0,24.5,29.87,North,0,0.0,0.0,83,0.00,,,0.00,WUHU216HW,2013-01-09 05:03:00,
2013-01-09 00:08:00,29.0,24.5,29.87,North,0,0.0,0.0,83,0.00,,,0.00,WUHU216HW,2013-01-09 05:08:00,
2013-01-09 00:30:00,28.8,24.3,29.88,North,0,0.0,0.0,83,0.00,,,0.00,WUHU216HW,2013-01-09 05:30:00,
2013-01-09 00:35:00,28.8,24.3,29.88,North,0,0.0,0.0,83,0.00,,,0.00,WUHU216HW,2013-01-09 05:35:00,
2013-01-09 01:00:00,28.4,24.2,29.87,North,0,0.0,0.0,84,0.00,,,0.00,WUHU216HW,2013-01-09 06:00:00,
2013-01-09 01:05:00,28.4,24.2,29.87,North,0,0.0,0.0,84,0.00,,,0.00,WUHU216HW,2013-01-09 06:05:00,
2013-01-09 01:30:00,27.9,23.7,29.88,North,0,0.0,0.0,84,0.00,,,0.00,WUHU216HW,2013-01-09 06:30:00,
2013-01-09 01:35:00,27.9,23.7,29.88,North,0,0.0,0.0,84,0.00,,,0.00,WUHU216HW,2013-01-09 06:35:00,
2013-01-09 02:00:00,27.5,23.9,29.88,North,0,0.0,0.0,86,0.00,,,0.00,WUHU216HW,2013-01-09 07:00:00,
2013-01-09 02:05:00,27.5,23.9,29.88,North,0,0.0,0.0,86,0.00,,,0.00,WUHU216HW,2013-01-09 07:05:00,
2013-01-09 02:30:00,27.5,23.6,29.87,North,0,0.0,0.0,85,0.00,,,0.00,WUHU216HW,2013-01-09 07:30:00,
2013-01-09 02:35:00,27.5,23.6,29.87,North,0,0.0,0.0,85,0.00,,,0.00,WUHU216HW,2013-01-09 07:35:00,
2013-01-09 03:00:00,27.4,23.4,29.87,North,0,0.0,0.0,85,0.00,,,0.00,WUHU216HW,2013-01-09 08:00:00,
2013-01-09 03:05:00,27.4,23.4,29.87,North,0,0.0,0.0,85,0.00,,,0.00,WUHU216HW,2013-01-09 08:05:00,
2013-01-09 19:59:00,39.6,33.3,29.49,North,0,0.0,0.0,78,0.00,,,0.00,WUHU216HW,2013-01-10 00:59:00,
2013-01-09 20:00:00,39.6,33.3,29.49,North,0,0.0,0.0,78,0.00,,,0.00,WUHU216HW,2013-01-10 01:00:00,
2013-01-09 20:05:00,39.6,33.3,29.49,North,0,0.0,0.0,78,0.00,,,0.00,WUHU216HW,2013-01-10 01:05:00,
2013-01-09 20:30:00,39.8,33.5,29.50,North,0,0.0,0.0,78,0.00,,,0.00,WUHU216HW,2013-01-10 01:30:00,
2013-01-09 20:35:00,39.8,33.5,29.50,North,0,0.0,0.0,78,0.00,,,0.00,WUHU216HW,2013-01-10 01:35:00,
2013-01-09 21:00:00,39.2,33.3,29.49,North,0,0.0,0.0,79,0.00,,,0.00,WUHU216HW,2013-01-10 02:00:00,
2013-01-09 21:05:00,39.2,33.3,29.49,North,0,0.0,0.0,79,0.00,,,0.00,WUHU216HW,2013-01-10 02:05:00,
2013-01-09 21:30:00,38.5,32.6,29.49,North,0,0.0,0.0,79,0.00,,,0.00,WUHU216HW,2013-01-10 02:30:00,
2013-01-09 21:35:00,38.5,32.6,29.49,North,0,0.0,0.0,79,0.00,,,0.00,WUHU216HW,2013-01-10 02:35:00,
2013-01-09 22:00:00,39.4,33.5,29.50,North,0,0.0,0.0,79,0.00,,,0.00,WUHU216HW,2013-01-10 03:00:00,
2013-01-09 22:05:00,39.4,33.5,29.50,North,0,0.0,0.0,79,0.00,,,0.00,WUHU216HW,2013-01-10 03:05:00,
2013-01-09 22:30:00,40.5,33.9,29.50,North,0,0.0,0.0,77,0.00,,,0.00,WUHU216HW,2013-01-10 03:30:00,
2013-01-09 22:35:00,40.5,33.9,29.50,North,0,0.0,0.0,77,0.00,,,0.00,WUHU216HW,2013-01-10 03:35:00,
2013-01-09 23:00:00,41.0,33.0,29.51,North,0,0.0,0.0,73,0.00,,,0.00,WUHU216HW,2013-01-10 04:00:00,
2013-01-09 23:05:00,41.0,33.0,29.51,North,0,0.0,0.0,73,0.00,,,0.00,WUHU216HW,2013-01-10 04:05:00,
2013-01-09 23:30:00,42.1,32.3,29.50,North,0,0.0,0.0,68,0.00,,,0.00,WUHU216HW,2013-01-10 04:30:00,
2013-01-09 23:35:00,42.1,32.3,29.50,North,0,0.0,0.0,68,0.00,,,0.00,WUHU216HW,2013-01-10 04:35:00,